Time;durP1;ratioP1;P1;durP2;ratioP2;P2;SDS_P1;SDS_P2;PMS_P1;PMS_P2;Temp;Humidity;BMP_temperature;BMP_pressure;BME280_temperature;BME280_humidity;BME280_pressure;Samples;Min_cycle;Max_cycle;Signal;HPM_P1;HPM_P2
2023/04/07 00:01:07;;;;;;;15.38;10.93;;;-0.10;99.90;;;;;;5026307;28;20068;-46
2023/04/07 00:03:37;;;;;;;11.95;10.10;;;-0.10;99.90;;;;;;5031078;28;20426;-47
2023/04/07 00:06:06;;;;;;;18.17;10.80;;;-0.10;99.90;;;;;;5026017;28;20058;-46
2023/04/07 00:08:34;;;;;;;18.83;11.05;;;-0.20;99.90;;;;;;5023682;28;20433;-46
2023/04/07 00:11:02;;;;;;;16.65;10.23;;;-0.20;99.90;;;;;;5022634;28;20411;-46
2023/04/07 00:13:30;;;;;;;12.88;10.23;;;-0.40;99.90;;;;;;5027398;28;20136;-46
2023/04/07 00:15:57;;;;;;;21.08;11.98;;;-0.40;99.90;;;;;;5027939;28;20045;-46
2023/04/07 00:18:25;;;;;;;20.00;12.35;;;-0.50;99.90;;;;;;5023125;28;20046;-46
2023/04/07 00:20:52;;;;;;;19.10;11.18;;;-0.50;99.90;;;;;;5021602;28;20404;-45
2023/04/07 00:23:20;;;;;;;18.13;9.65;;;-0.60;99.90;;;;;;5024895;28;20409;-45
2023/04/07 00:25:48;;;;;;;16.17;11.32;;;-0.70;99.90;;;;;;5023230;28;20053;-46
2023/04/07 00:28:16;;;;;;;22.80;12.85;;;-0.90;99.90;;;;;;5022854;28;20050;-46
2023/04/07 00:30:43;;;;;;;20.42;11.23;;;-0.90;99.90;;;;;;5021183;28;20425;-46
2023/04/07 00:33:11;;;;;;;16.08;11.82;;;-0.90;99.90;;;;;;5023504;28;20054;-45
2023/04/07 00:35:38;;;;;;;16.13;11.25;;;-0.90;99.90;;;;;;5027594;28;20044;-46
2023/04/07 00:38:06;;;;;;;18.38;12.02;;;-0.90;99.90;;;;;;5028809;28;20073;-46
2023/04/07 00:40:34;;;;;;;17.02;11.82;;;-0.80;99.90;;;;;;5029086;28;20060;-47
2023/04/07 00:43:01;;;;;;;19.48;12.52;;;-0.80;99.90;;;;;;5023286;28;20053;-46
2023/04/07 00:45:29;;;;;;;17.80;11.63;;;-0.80;99.90;;;;;;5001373;28;20061;-47
2023/04/07 00:47:57;;;;;;;14.82;10.55;;;-0.80;99.90;;;;;;5022879;28;20426;-46
2023/04/07 00:50:25;;;;;;;16.02;10.95;;;-0.80;99.90;;;;;;5021344;28;20046;-47
2023/04/07 00:52:55;;;;;;;13.60;10.70;;;-0.80;99.90;;;;;;5022915;28;20065;-47
2023/04/07 00:55:23;;;;;;;14.93;9.88;;;-1.00;99.90;;;;;;5022296;28;20087;-46
2023/04/07 00:57:50;;;;;;;18.73;11.50;;;-1.10;99.90;;;;;;5021493;28;20057;-46
2023/04/07 01:00:19;;;;;;;14.50;10.90;;;-1.20;99.90;;;;;;5022587;28;20049;-47
2023/04/07 01:03:04;;;;;;;17.75;11.48;;;-1.10;99.90;;;;;;5022797;28;20049;-46
2023/04/07 01:05:32;;;;;;;14.90;11.85;;;-1.10;99.90;;;;;;5021389;28;20373;-47
2023/04/07 01:08:21;;;;;;;18.08;12.00;;;-0.90;99.90;;;;;;5026072;28;20038;-47
2023/04/07 01:10:53;;;;;;;12.57;9.27;;;-0.80;99.90;;;;;;5027292;28;20050;-47
2023/04/07 01:13:44;;;;;;;16.10;10.40;;;-0.90;99.90;;;;;;5035516;28;20065;-47
2023/04/07 01:16:43;;;;;;;18.45;12.00;;;-1.00;99.90;;;;;;4979459;28;20056;-47
2023/04/07 01:19:45;;;;;;;14.88;10.80;;;-0.90;99.90;;;;;;5031015;28;20041;-47
2023/04/07 01:22:13;;;;;;;;;;;-1.00;99.90;;;;;;4999092;28;20045;-47
2023/04/07 01:25:18;;;;;;;16.48;9.88;;;-1.00;99.90;;;;;;5026563;28;19925;-48
2023/04/07 01:28:02;;;;;;;16.02;11.70;;;-1.00;99.90;;;;;;5023780;28;20048;-47
2023/04/07 01:30:33;;;;;;;20.65;12.00;;;-0.90;99.90;;;;;;5026042;28;20045;-48
2023/04/07 01:33:01;;;;;;;17.80;12.82;;;-0.80;99.90;;;;;;5030464;28;20057;-47
2023/04/07 01:35:33;;;;;;;20.92;11.73;;;-0.80;99.90;;;;;;5023847;28;20053;-47
2023/04/07 01:38:02;;;;;;;22.02;14.63;;;-0.80;99.90;;;;;;5030503;28;20046;-47
2023/04/07 01:40:32;;;;;;;21.13;10.43;;;-0.80;99.90;;;;;;5027666;28;20046;-47
2023/04/07 01:43:01;;;;;;;16.08;11.95;;;-1.00;99.90;;;;;;5029452;28;20421;-47
2023/04/07 01:45:31;;;;;;;16.50;12.68;;;-1.00;99.90;;;;;;5012930;28;20424;-47
2023/04/07 01:47:59;;;;;;;19.40;13.27;;;-1.10;99.90;;;;;;5032860;28;20056;-48
2023/04/07 01:50:28;;;;;;;20.52;11.80;;;-1.10;99.90;;;;;;5029478;28;20041;-47
2023/04/07 01:52:56;;;;;;;21.27;11.35;;;-1.10;99.90;;;;;;5025535;28;20071;-48
2023/04/07 01:55:24;;;;;;;19.58;12.50;;;-1.10;99.90;;;;;;5031764;28;20045;-47
2023/04/07 01:58:06;;;;;;;24.80;11.03;;;-1.20;99.90;;;;;;5014573;28;20052;-48
2023/04/07 02:00:35;;;;;;;13.85;11.07;;;-1.30;99.90;;;;;;5009783;28;20060;-48
2023/04/07 02:03:19;;;;;;;19.48;11.65;;;-1.40;99.90;;;;;;5015747;28;20381;-47
2023/04/07 02:05:51;;;;;;;18.42;12.48;;;-1.40;99.90;;;;;;5022063;28;20064;-48
2023/04/07 02:08:20;;;;;;;;;;;-1.30;99.90;;;;;;5024044;28;20052;-48
2023/04/07 02:10:50;;;;;;;16.15;11.30;;;-1.20;99.90;;;;;;5028165;28;20254;-48
2023/04/07 02:13:19;;;;;;;18.85;12.38;;;-1.20;99.90;;;;;;5013342;28;20056;-48
2023/04/07 02:15:50;;;;;;;20.48;13.55;;;-1.10;99.90;;;;;;5018300;28;20060;-48
2023/04/07 02:18:19;;;;;;;18.63;12.30;;;-1.10;99.90;;;;;;5022008;28;20049;-48
2023/04/07 02:20:49;;;;;;;16.88;12.75;;;-1.10;99.90;;;;;;5022484;28;20053;-48
2023/04/07 02:23:16;;;;;;;22.33;14.40;;;-1.10;99.90;;;;;;5022664;28;20085;-48
2023/04/07 02:25:44;;;;;;;21.02;14.00;;;-1.10;99.90;;;;;;5024336;28;20064;-49
2023/04/07 02:28:12;;;;;;;19.23;11.93;;;-1.10;99.90;;;;;;5024685;28;20053;-49
2023/04/07 02:30:39;;;;;;;19.65;13.38;;;-1.10;99.90;;;;;;5024545;28;20407;-48
2023/04/07 02:33:07;;;;;;;15.23;10.75;;;-1.10;99.90;;;;;;5010643;28;20049;-49
2023/04/07 02:35:34;;;;;;;17.05;13.52;;;-1.10;99.90;;;;;;5024819;28;20052;-36
2023/04/07 02:38:02;;;;;;;17.13;10.00;;;-1.00;99.90;;;;;;5012090;28;20053;-35
2023/04/07 02:40:29;;;;;;;24.88;13.13;;;-1.00;99.90;;;;;;5027128;28;20062;-44
2023/04/07 02:42:58;;;;;;;19.88;11.27;;;-0.90;99.90;;;;;;5023107;28;20056;-46
2023/04/07 02:45:25;;;;;;;18.10;11.10;;;-0.90;99.90;;;;;;5032640;28;20049;-45
2023/04/07 02:47:53;;;;;;;23.92;13.57;;;-1.20;99.90;;;;;;5028099;28;20072;-47
2023/04/07 02:50:20;;;;;;;20.65;11.57;;;-1.40;99.90;;;;;;5021442;28;20052;-46
2023/04/07 02:52:48;;;;;;;19.23;13.27;;;-1.60;99.90;;;;;;5023763;28;20052;-47
2023/04/07 02:55:17;;;;;;;25.38;13.30;;;-1.50;99.90;;;;;;5028869;28;20440;-49
2023/04/07 02:57:44;;;;;;;19.15;12.55;;;-1.50;99.90;;;;;;5011224;28;20124;-49
2023/04/07 03:00:23;;;;;;;20.80;14.60;;;-1.50;99.90;;;;;;5009119;28;20041;-49
2023/04/07 03:03:00;;;;;;;22.13;14.25;;;-1.40;99.90;;;;;;5034666;28;20524;-46
2023/04/07 03:05:31;;;;;;;20.17;14.85;;;-1.40;99.90;;;;;;5005030;28;20380;-49
2023/04/07 03:08:00;;;;;;;20.33;13.18;;;-1.30;99.90;;;;;;5016253;28;20425;-48
2023/04/07 03:10:28;;;;;;;22.45;15.95;;;-1.30;99.90;;;;;;5032106;28;20433;-47
2023/04/07 03:12:56;;;;;;;25.20;13.73;;;-1.50;99.90;;;;;;5030934;28;20060;-47
2023/04/07 03:15:24;;;;;;;17.58;12.90;;;-1.50;99.90;;;;;;5027232;28;20060;-46
2023/04/07 03:17:52;;;;;;;24.98;14.23;;;-1.50;99.90;;;;;;5006001;28;20057;-47
2023/04/07 03:20:20;;;;;;;24.75;13.00;;;-1.50;99.90;;;;;;5001989;28;20050;-47
2023/04/07 03:22:47;;;;;;;20.23;11.85;;;-1.50;99.90;;;;;;5032716;28;20060;-46
2023/04/07 03:25:21;;;;;;;16.33;13.73;;;-1.50;99.90;;;;;;5017710;28;20528;-47
2023/04/07 03:27:50;;;;;;;21.33;13.10;;;-1.50;99.90;;;;;;5010740;28;20060;-50
2023/04/07 03:30:18;;;;;;;17.77;14.00;;;-1.40;99.90;;;;;;5021307;28;20061;-48
2023/04/07 03:32:46;;;;;;;16.10;12.02;;;-1.40;99.90;;;;;;5023830;28;20057;-49
2023/04/07 03:35:14;;;;;;;16.55;12.13;;;-1.40;99.90;;;;;;5024848;28;20053;-50
2023/04/07 03:37:44;;;;;;;19.48;12.82;;;-1.50;99.90;;;;;;5027779;28;20471;-46
2023/04/07 03:40:16;;;;;;;18.85;13.02;;;-1.50;99.90;;;;;;5008576;28;20381;-49
2023/04/07 03:42:45;;;;;;;19.45;12.13;;;-1.40;99.90;;;;;;5023112;28;20064;-47
2023/04/07 03:45:14;;;;;;;31.58;14.93;;;-1.40;99.90;;;;;;5016205;28;20087;-48
2023/04/07 03:47:46;;;;;;;17.25;12.85;;;-1.40;99.90;;;;;;5030685;28;20049;-46
2023/04/07 03:50:15;;;;;;;16.80;11.65;;;-1.40;99.90;;;;;;5023299;28;20453;-47
2023/04/07 03:52:52;;;;;;;17.10;12.15;;;-1.30;99.90;;;;;;5012175;28;20045;-49
2023/04/07 03:55:25;;;;;;;27.80;12.65;;;-1.20;99.90;;;;;;5017493;28;20430;-47
2023/04/07 03:57:58;;;;;;;18.75;12.10;;;-1.20;99.90;;;;;;5027772;28;20527;-47
2023/04/07 04:00:32;;;;;;;18.73;11.13;;;-1.20;99.90;;;;;;5032686;28;20053;-47
2023/04/07 04:03:07;;;;;;;18.05;12.80;;;-1.20;99.90;;;;;;5022151;28;20080;-48
2023/04/07 04:05:39;;;;;;;17.05;12.05;;;-1.20;99.90;;;;;;5030441;28;20484;-49
2023/04/07 04:08:10;;;;;;;18.95;13.23;;;-1.10;99.90;;;;;;5021045;28;20046;-48
2023/04/07 04:10:39;;;;;;;21.27;15.02;;;-1.00;99.90;;;;;;5005084;28;20053;-47
2023/04/07 04:13:09;;;;;;;15.18;11.50;;;-0.90;99.90;;;;;;5026559;28;20064;-47
2023/04/07 04:15:37;;;;;;;14.98;12.43;;;-0.90;99.90;;;;;;5023637;28;20042;-49
2023/04/07 04:18:08;;;;;;;12.10;8.75;;;-1.00;99.90;;;;;;5031572;28;20049;-47
2023/04/07 04:20:36;;;;;;;13.43;9.80;;;-0.90;99.90;;;;;;5027277;28;20060;-49
2023/04/07 04:23:05;;;;;;;10.43;7.95;;;-0.80;99.90;;;;;;5015172;28;20053;-52
2023/04/07 04:25:34;;;;;;;11.60;8.80;;;-0.70;99.90;;;;;;5021107;28;20076;-50
2023/04/07 04:28:06;;;;;;;10.52;9.48;;;-0.70;99.90;;;;;;5022090;28;20545;-50
2023/04/07 04:30:34;;;;;;;7.10;5.85;;;-0.60;99.90;;;;;;5022687;28;20050;-50
2023/04/07 04:33:03;;;;;;;7.97;6.50;;;-0.60;99.90;;;;;;5023230;28;20049;-48
2023/04/07 04:35:51;;;;;;;10.18;7.13;;;-0.50;99.90;;;;;;5020875;28;20050;-47
2023/04/07 04:38:20;;;;;;;9.98;7.00;;;-0.40;99.90;;;;;;5013940;28;20425;-47
2023/04/07 04:40:54;;;;;;;14.00;8.93;;;-0.30;99.90;;;;;;5029150;28;20060;-46
2023/04/07 04:43:28;;;;;;;10.50;9.40;;;-0.40;99.90;;;;;;5011539;28;20048;-47
2023/04/07 04:45:56;;;;;;;10.00;8.02;;;-0.40;99.90;;;;;;5013591;28;20054;-46
2023/04/07 04:48:26;;;;;;;12.52;8.68;;;-0.40;99.90;;;;;;5037033;28;20301;-51
2023/04/07 04:50:54;;;;;;;10.25;7.97;;;-0.50;99.90;;;;;;5020517;28;20061;-45
2023/04/07 04:53:22;;;;;;;9.85;8.23;;;-0.30;99.90;;;;;;5033523;28;20072;-48
2023/04/07 04:55:55;;;;;;;10.48;7.72;;;-0.20;99.90;;;;;;5025636;28;20053;-45
2023/04/07 04:58:39;;;;;;;8.07;6.93;;;0.00;99.90;;;;;;5035395;28;20072;-47
2023/04/07 05:01:08;;;;;;;8.95;7.40;;;0.50;99.90;;;;;;5024249;28;20262;-47
2023/04/07 05:03:40;;;;;;;10.60;6.82;;;1.10;99.90;;;;;;5014989;28;20064;-46
2023/04/07 05:06:17;;;;;;;8.35;5.53;;;1.40;99.90;;;;;;5007496;28;20384;-45
2023/04/07 05:08:47;;;;;;;16.70;6.95;;;1.50;99.90;;;;;;5025354;28;20050;-44
2023/04/07 05:11:17;;;;;;;9.55;6.20;;;1.50;99.90;;;;;;5007832;28;20053;-44
2023/04/07 05:13:49;;;;;;;15.60;7.05;;;1.60;99.90;;;;;;5014182;28;20121;-44
2023/04/07 05:16:16;;;;;;;6.32;5.63;;;1.90;99.90;;;;;;5035190;28;20079;-43
2023/04/07 05:18:45;;;;;;;8.77;6.43;;;2.20;99.90;;;;;;5014914;28;20052;-42
2023/04/07 05:21:14;;;;;;;10.85;7.03;;;2.60;99.90;;;;;;5030374;28;20042;-43
2023/04/07 05:23:41;;;;;;;8.63;6.10;;;3.00;99.90;;;;;;5028243;28;20042;-42
2023/04/07 05:26:10;;;;;;;7.00;4.50;;;3.20;99.90;;;;;;5018724;28;20056;-41
2023/04/07 05:28:39;;;;;;;9.68;5.75;;;3.20;99.90;;;;;;5035905;28;20067;-41
2023/04/07 05:31:13;;;;;;;6.85;5.00;;;3.20;99.90;;;;;;5023113;28;20565;-41
2023/04/07 05:33:41;;;;;;;6.95;5.50;;;3.30;99.90;;;;;;5014241;28;20053;-42
2023/04/07 05:36:09;;;;;;;7.00;5.88;;;3.40;99.90;;;;;;4997671;28;20050;-41
2023/04/07 05:38:40;;;;;;;8.77;6.75;;;3.40;99.90;;;;;;5024121;28;20046;-39
2023/04/07 05:41:12;;;;;;;8.70;6.35;;;3.40;99.90;;;;;;5025798;28;20050;-40
2023/04/07 05:43:40;;;;;;;7.95;5.90;;;3.60;99.90;;;;;;5028986;28;20044;-39
2023/04/07 05:46:08;;;;;;;7.78;6.20;;;3.60;99.90;;;;;;5013196;28;20576;-38
2023/04/07 05:48:45;;;;;;;7.35;6.05;;;3.60;99.90;;;;;;5022431;28;20061;-39
2023/04/07 05:51:14;;;;;;;12.95;6.07;;;3.50;99.90;;;;;;5014231;28;20045;-39
2023/04/07 05:53:42;;;;;;;7.32;4.60;;;3.50;99.90;;;;;;5032402;28;20049;-38
2023/04/07 05:56:10;;;;;;;7.95;5.88;;;3.50;99.90;;;;;;5005750;28;20065;-40
2023/04/07 05:58:44;;;;;;;8.95;5.95;;;3.60;99.90;;;;;;5012906;28;20049;-38
2023/04/07 06:01:13;;;;;;;10.23;6.25;;;3.80;99.90;;;;;;5032865;28;20054;-39
2023/04/07 06:03:41;;;;;;;9.63;6.70;;;3.80;99.90;;;;;;5023667;28;20046;-39
2023/04/07 06:06:14;;;;;;;10.68;8.15;;;3.90;99.90;;;;;;5030359;28;20049;-39
2023/04/07 06:08:42;;;;;;;12.40;8.10;;;4.00;99.90;;;;;;5020939;28;20072;-38
2023/04/07 06:11:09;;;;;;;19.10;12.32;;;3.80;99.90;;;;;;5031036;28;20041;-38
2023/04/07 06:13:37;;;;;;;15.30;11.20;;;3.70;99.90;;;;;;5031375;28;20077;-38
2023/04/07 06:16:05;;;;;;;12.65;11.32;;;3.60;99.90;;;;;;5024601;28;20168;-42
2023/04/07 06:18:32;;;;;;;16.30;12.57;;;3.50;99.90;;;;;;5008700;28;20085;-39
2023/04/07 06:21:00;;;;;;;14.77;10.55;;;3.30;99.90;;;;;;5025885;28;20505;-39
2023/04/07 06:23:28;;;;;;;13.30;10.60;;;3.10;99.90;;;;;;5027976;28;20113;-39
2023/04/07 06:25:55;;;;;;;13.23;10.45;;;2.90;99.90;;;;;;5029947;28;20438;-40
2023/04/07 06:28:23;;;;;;;20.30;10.63;;;2.90;99.90;;;;;;5024971;28;20060;-39
2023/04/07 06:30:50;;;;;;;15.95;13.15;;;2.80;99.90;;;;;;5030936;28;20049;-39
2023/04/07 06:33:24;;;;;;;16.90;12.23;;;2.80;99.90;;;;;;5012429;28;20481;-41
2023/04/07 06:35:51;;;;;;;13.93;10.25;;;2.90;99.90;;;;;;5022910;28;20076;-40
2023/04/07 06:38:19;;;;;;;13.93;11.35;;;2.90;99.90;;;;;;5024018;28;20896;-39
2023/04/07 06:40:47;;;;;;;13.63;11.02;;;3.00;99.90;;;;;;5026687;28;20056;-39
2023/04/07 06:43:14;;;;;;;13.43;10.57;;;3.10;99.90;;;;;;5026484;28;20053;-39
2023/04/07 06:46:02;;;;;;;17.13;9.55;;;3.20;99.90;;;;;;5027541;28;20462;-39
2023/04/07 06:48:30;;;;;;;11.35;7.70;;;3.40;99.90;;;;;;5024804;28;20053;-38
2023/04/07 06:50:57;;;;;;;12.73;8.10;;;3.70;99.90;;;;;;5026322;28;20548;-40
2023/04/07 06:53:25;;;;;;;10.63;7.38;;;3.80;99.90;;;;;;5026742;28;20053;-42
2023/04/07 06:56:05;;;;;;;10.80;8.27;;;4.00;99.90;;;;;;5019276;28;20049;-40
2023/04/07 06:58:34;;;;;;;16.58;8.60;;;4.10;99.90;;;;;;5032139;28;20060;-41
2023/04/07 07:01:03;;;;;;;10.07;7.70;;;4.20;99.90;;;;;;5025389;28;20474;-41
2023/04/07 07:03:31;;;;;;;9.35;7.25;;;4.10;99.90;;;;;;5029586;28;20046;-40
2023/04/07 07:06:00;;;;;;;9.52;7.63;;;4.10;99.90;;;;;;5018544;28;20087;-40
2023/04/07 07:08:28;;;;;;;11.30;8.00;;;4.10;99.90;;;;;;5029032;28;20061;-39
2023/04/07 07:10:56;;;;;;;21.38;14.52;;;4.20;99.90;;;;;;5023881;28;20057;-39
2023/04/07 07:13:25;;;;;;;11.95;9.00;;;4.30;99.90;;;;;;5024592;28;20072;-41
2023/04/07 07:15:53;;;;;;;12.43;8.85;;;4.60;99.90;;;;;;5023445;28;20049;-39
2023/04/07 07:18:20;;;;;;;10.82;8.25;;;5.30;99.90;;;;;;5028550;28;20436;-39
2023/04/07 07:20:49;;;;;;;13.27;11.93;;;6.50;99.90;;;;;;5022263;28;20521;-39
2023/04/07 07:23:16;;;;;;;10.60;9.50;;;7.80;99.90;;;;;;5021101;28;20052;-38
2023/04/07 07:25:44;;;;;;;8.25;6.75;;;8.70;99.90;;;;;;5028318;28;20068;-39
2023/04/07 07:28:12;;;;;;;10.20;6.72;;;8.70;99.90;;;;;;5022977;28;20053;-39
2023/04/07 07:30:40;;;;;;;12.02;7.00;;;8.30;99.90;;;;;;5027987;28;20045;-41
2023/04/07 07:33:08;;;;;;;9.25;6.45;;;7.60;99.90;;;;;;5025444;28;20631;-39
2023/04/07 07:35:36;;;;;;;11.80;8.90;;;7.10;99.90;;;;;;5022987;28;20052;-39
2023/04/07 07:38:04;;;;;;;8.05;6.90;;;6.70;99.90;;;;;;5022885;28;20053;-41
2023/04/07 07:40:32;;;;;;;11.43;8.88;;;6.50;99.90;;;;;;5023984;28;20048;-39
2023/04/07 07:43:00;;;;;;;7.18;6.43;;;6.50;99.90;;;;;;5023813;28;20041;-41
2023/04/07 07:45:27;;;;;;;10.35;7.95;;;6.50;99.90;;;;;;5023432;28;20064;-41
2023/04/07 07:47:55;;;;;;;13.90;7.55;;;6.50;99.90;;;;;;5022851;28;20049;-39
2023/04/07 07:50:22;;;;;;;10.02;8.57;;;6.70;99.90;;;;;;5020029;28;20465;-40
2023/04/07 07:52:50;;;;;;;12.27;7.35;;;7.60;99.90;;;;;;5026504;28;20064;-40
2023/04/07 07:55:18;;;;;;;10.45;6.65;;;8.50;99.90;;;;;;5029059;28;20517;-41
2023/04/07 07:57:45;;;;;;;8.32;7.53;;;8.90;99.90;;;;;;5024658;28;20415;-41
2023/04/07 08:00:13;;;;;;;9.90;7.50;;;9.00;99.90;;;;;;5008189;28;20791;-42
2023/04/07 08:02:40;;;;;;;10.93;7.47;;;8.10;99.90;;;;;;5028496;28;20446;-42
2023/04/07 08:05:08;;;;;;;9.45;8.45;;;7.90;99.90;;;;;;5020237;28;20088;-40
2023/04/07 08:07:36;;;;;;;9.75;8.80;;;7.80;99.90;;;;;;5022915;28;20045;-38
2023/04/07 08:10:04;;;;;;;10.35;7.97;;;7.80;99.90;;;;;;5022979;28;20053;-39
2023/04/07 08:12:31;;;;;;;10.60;7.75;;;7.70;99.90;;;;;;5028948;28;20054;-42
2023/04/07 08:14:59;;;;;;;12.20;9.50;;;8.20;99.90;;;;;;5029344;28;20045;-42
2023/04/07 08:17:27;;;;;;;11.15;8.27;;;8.60;99.90;;;;;;5029687;28;20092;-40
2023/04/07 08:19:54;;;;;;;9.88;7.82;;;8.70;99.90;;;;;;5027179;28;20045;-40
2023/04/07 08:22:22;;;;;;;15.63;10.90;;;9.10;99.90;;;;;;5028910;28;20129;-38
2023/04/07 08:24:50;;;;;;;8.32;7.50;;;9.60;99.90;;;;;;5029769;28;20059;-40
2023/04/07 08:27:17;;;;;;;12.60;8.15;;;9.70;99.90;;;;;;5029035;28;20611;-39
2023/04/07 08:29:45;;;;;;;16.52;11.43;;;9.80;99.90;;;;;;5029292;28;20053;-38
2023/04/07 08:32:12;;;;;;;19.45;13.20;;;9.50;99.90;;;;;;5029133;28;20052;-39
2023/04/07 08:34:41;;;;;;;10.38;9.23;;;9.30;99.90;;;;;;5027269;28;20080;-38
2023/04/07 08:37:09;;;;;;;10.65;8.77;;;8.90;99.90;;;;;;5030664;28;20053;-39
2023/04/07 08:39:36;;;;;;;12.95;8.85;;;8.30;99.90;;;;;;5029853;28;20429;-42
2023/04/07 08:42:06;;;;;;;11.73;8.40;;;8.40;99.90;;;;;;5028834;28;20037;-38
2023/04/07 08:44:35;;;;;;;12.77;11.07;;;8.90;99.90;;;;;;5029864;28;20064;-38
2023/04/07 08:47:07;;;;;;;10.93;9.30;;;9.20;99.90;;;;;;5029326;28;20064;-39
2023/04/07 08:49:38;;;;;;;11.38;8.10;;;9.30;99.90;;;;;;5025481;28;20450;-39
2023/04/07 08:52:10;;;;;;;12.63;9.57;;;9.40;99.90;;;;;;5034495;28;20050;-38
2023/04/07 08:54:37;;;;;;;;;;;9.30;99.90;;;;;;5029537;28;20038;-40
2023/04/07 08:57:06;;;;;;;10.40;7.40;;;9.30;99.90;;;;;;5016216;28;19925;-41
2023/04/07 08:59:35;;;;;;;8.70;6.40;;;9.50;99.90;;;;;;5028399;28;20770;-41
2023/04/07 09:02:04;;;;;;;7.05;6.35;;;9.30;99.90;;;;;;5026458;28;20417;-41
2023/04/07 09:04:32;;;;;;;19.08;16.70;;;8.90;99.90;;;;;;5027975;28;20053;-42
2023/04/07 09:07:00;;;;;;;10.15;7.72;;;8.40;99.90;;;;;;5028741;28;20052;-41
2023/04/07 09:09:29;;;;;;;9.38;7.40;;;8.40;99.90;;;;;;5027944;28;20053;-41
2023/04/07 09:11:57;;;;;;;9.63;7.65;;;8.50;99.90;;;;;;5028471;28;20549;-42
2023/04/07 09:14:25;;;;;;;7.72;6.72;;;8.60;99.90;;;;;;5028456;28;20073;-41
2023/04/07 09:16:54;;;;;;;8.73;7.90;;;8.50;99.90;;;;;;5029253;28;20197;-43
2023/04/07 09:19:25;;;;;;;7.47;5.45;;;8.50;99.90;;;;;;5027501;28;20082;-42
2023/04/07 09:21:53;;;;;;;11.88;8.05;;;8.50;99.90;;;;;;5027647;28;20060;-41
2023/04/07 09:24:23;;;;;;;6.93;6.25;;;8.30;99.90;;;;;;5021886;28;20414;-41
2023/04/07 09:27:07;;;;;;;6.05;5.07;;;8.40;99.90;;;;;;5024410;28;20045;-42
2023/04/07 09:29:34;;;;;;;7.93;6.10;;;8.50;99.90;;;;;;5026048;28;20631;-44
2023/04/07 09:32:02;;;;;;;7.20;6.50;;;8.80;99.90;;;;;;5024018;28;20042;-42
2023/04/07 09:34:36;;;;;;;10.15;6.70;;;8.70;99.90;;;;;;5023313;28;20042;-43
2023/04/07 09:37:10;;;;;;;7.40;5.30;;;8.60;99.90;;;;;;5025636;28;20070;-42
2023/04/07 09:39:50;;;;;;;7.80;6.38;;;8.70;99.90;;;;;;5026867;28;20072;-42
2023/04/07 09:42:20;;;;;;;7.65;5.97;;;9.20;99.90;;;;;;5028836;28;20056;-42
2023/04/07 09:44:47;;;;;;;7.15;5.40;;;9.10;99.90;;;;;;5025807;28;20049;-42
2023/04/07 09:47:16;;;;;;;8.07;6.97;;;9.10;99.90;;;;;;5025234;28;20049;-43
2023/04/07 09:49:53;;;;;;;7.03;5.90;;;9.10;99.90;;;;;;5022590;28;20053;-40
2023/04/07 09:52:52;;;;;;;8.40;6.32;;;9.10;99.90;;;;;;5017249;28;20293;-42
2023/04/07 09:55:21;;;;;;;12.70;6.25;;;9.60;99.90;;;;;;5029608;28;20593;-43
2023/04/07 09:57:50;;;;;;;9.32;6.05;;;9.70;99.90;;;;;;5018594;28;20141;-42
2023/04/07 10:00:18;;;;;;;9.63;6.90;;;9.60;99.90;;;;;;5029203;28;20386;-42
2023/04/07 10:02:46;;;;;;;8.73;5.13;;;10.00;99.90;;;;;;5021655;28;20045;-42
2023/04/07 10:05:14;;;;;;;7.95;6.85;;;10.30;99.90;;;;;;5013402;28;20045;-39
2023/04/07 10:07:42;;;;;;;8.68;6.32;;;10.00;99.90;;;;;;5021161;28;20057;-39
2023/04/07 10:10:10;;;;;;;11.43;7.53;;;9.90;99.90;;;;;;5023898;28;20054;-39
2023/04/07 10:12:40;;;;;;;10.82;7.53;;;9.90;99.90;;;;;;5018074;28;20061;-39
2023/04/07 10:15:10;;;;;;;10.95;6.85;;;10.00;99.90;;;;;;5016739;28;20512;-39
2023/04/07 10:17:40;;;;;;;9.30;7.50;;;10.30;99.90;;;;;;5015225;28;20461;-41
2023/04/07 10:20:09;;;;;;;8.70;6.75;;;10.50;99.90;;;;;;5017841;28;20061;-41
2023/04/07 10:22:40;;;;;;;7.68;6.00;;;10.70;99.90;;;;;;5021153;28;20049;-40
2023/04/07 10:25:10;;;;;;;10.82;7.05;;;10.50;99.90;;;;;;5024625;28;20485;-41
2023/04/07 10:27:49;;;;;;;7.55;6.43;;;10.50;99.90;;;;;;5023772;28;20045;-41
2023/04/07 10:30:28;;;;;;;8.70;6.43;;;10.30;99.90;;;;;;5017670;28;20053;-40
2023/04/07 10:32:55;;;;;;;8.00;6.57;;;10.00;99.90;;;;;;5022731;28;20399;-41
2023/04/07 10:35:23;;;;;;;5.90;5.28;;;10.10;99.90;;;;;;5018170;28;20050;-43
2023/04/07 10:38:06;;;;;;;9.20;6.25;;;10.40;99.90;;;;;;5024560;28;20095;-41
2023/04/07 10:40:35;;;;;;;6.57;5.70;;;10.70;99.90;;;;;;5018023;28;20080;-42
2023/04/07 10:43:08;;;;;;;10.20;8.55;;;11.10;99.90;;;;;;5015674;28;20053;-41
2023/04/07 10:45:45;;;;;;;10.38;5.95;;;11.20;99.90;;;;;;5019625;28;20060;-41
2023/04/07 10:48:15;;;;;;;9.40;7.47;;;11.10;99.90;;;;;;4997913;28;20068;-41
2023/04/07 10:51:02;;;;;;;8.98;7.15;;;10.90;99.90;;;;;;5026551;28;20045;-40
2023/04/07 10:53:30;;;;;;;7.97;6.15;;;11.00;99.90;;;;;;5024614;28;20057;-41
2023/04/07 10:55:58;;;;;;;8.45;6.57;;;11.10;99.90;;;;;;5023616;28;20050;-40
2023/04/07 10:58:29;;;;;;;9.77;7.32;;;10.80;99.90;;;;;;5023821;28;20049;-42
2023/04/07 11:01:05;;;;;;;7.85;5.53;;;10.80;99.90;;;;;;5024365;28;20053;-40
2023/04/07 11:03:35;;;;;;;8.82;6.30;;;10.40;99.90;;;;;;5021268;28;20041;-40
2023/04/07 11:06:04;;;;;;;7.45;5.15;;;10.40;99.90;;;;;;5022973;28;20192;-41
2023/04/07 11:08:33;;;;;;;10.68;5.60;;;10.80;99.90;;;;;;5023618;28;20049;-40
2023/04/07 11:11:01;;;;;;;8.00;5.47;;;10.50;99.90;;;;;;5022202;28;20049;-44
2023/04/07 11:13:38;;;;;;;8.15;6.03;;;10.20;99.90;;;;;;5023270;28;20072;-43
2023/04/07 11:16:06;;;;;;;6.75;5.25;;;10.00;99.90;;;;;;5021123;28;20429;-40
2023/04/07 11:18:36;;;;;;;5.93;5.28;;;9.80;99.90;;;;;;5022929;28;20054;-40
2023/04/07 11:21:05;;;;;;;8.80;6.18;;;9.90;99.90;;;;;;5022196;28;20049;-41
2023/04/07 11:23:44;;;;;;;7.32;6.60;;;9.80;99.90;;;;;;5018253;28;20052;-42
2023/04/07 11:26:14;;;;;;;8.13;5.28;;;9.90;99.90;;;;;;5018719;28;20056;-40
2023/04/07 11:28:46;;;;;;;7.55;5.65;;;9.80;99.90;;;;;;5022933;28;20064;-41
2023/04/07 11:31:47;;;;;;;7.22;5.93;;;9.70;99.90;;;;;;5021427;28;20053;-41
2023/04/07 11:34:14;;;;;;;6.83;6.07;;;9.70;99.90;;;;;;5010166;28;20049;-40
2023/04/07 11:36:42;;;;;;;11.45;5.78;;;9.80;99.90;;;;;;5021881;28;20825;-40
2023/04/07 11:39:20;;;;;;;8.13;6.03;;;9.70;99.90;;;;;;5023084;28;20053;-40
2023/04/07 11:41:50;;;;;;;6.32;5.30;;;10.00;99.90;;;;;;5022116;28;20060;-40
2023/04/07 11:44:17;;;;;;;7.78;5.43;;;10.10;99.90;;;;;;5022441;28;20045;-40
2023/04/07 11:46:55;;;;;;;9.48;5.45;;;10.30;99.90;;;;;;5019945;28;20514;-43
2023/04/07 11:49:24;;;;;;;5.85;5.05;;;10.50;99.90;;;;;;5021528;28;20065;-40
2023/04/07 11:52:01;;;;;;;6.43;5.20;;;10.50;99.90;;;;;;5022015;28;20053;-41
2023/04/07 11:54:45;;;;;;;11.95;7.95;;;10.70;99.90;;;;;;5021840;28;20065;-41
2023/04/07 11:57:13;;;;;;;8.50;6.38;;;10.70;99.90;;;;;;5023314;28;20453;-41
2023/04/07 11:59:41;;;;;;;8.80;7.68;;;10.70;99.90;;;;;;5022070;28;20400;-41
2023/04/07 12:02:09;;;;;;;9.77;6.65;;;10.40;99.90;;;;;;5021895;28;20046;-41
2023/04/07 12:04:39;;;;;;;5.43;4.43;;;10.20;99.90;;;;;;5021255;28;20631;-43
2023/04/07 12:07:09;;;;;;;5.57;4.77;;;10.30;99.90;;;;;;5023626;28;20076;-40
2023/04/07 12:09:37;;;;;;;8.27;5.25;;;10.50;99.90;;;;;;5022640;28;20045;-42
2023/04/07 12:12:06;;;;;;;6.85;4.55;;;10.90;99.90;;;;;;5018189;28;20045;-43
2023/04/07 12:14:35;;;;;;;6.85;4.60;;;11.20;99.90;;;;;;5020400;28;20069;-41
2023/04/07 12:17:03;;;;;;;7.97;6.68;;;11.30;99.90;;;;;;5019421;28;20057;-44
2023/04/07 12:19:34;;;;;;;6.65;6.03;;;11.20;99.90;;;;;;5017248;28;20053;-41
2023/04/07 12:22:02;;;;;;;8.00;6.20;;;11.00;99.90;;;;;;5020083;28;20045;-41
2023/04/07 12:24:31;;;;;;;5.15;4.45;;;10.80;99.90;;;;;;5017251;28;20049;-39
2023/04/07 12:26:59;;;;;;;4.15;3.78;;;10.80;99.90;;;;;;5019325;28;20410;-41
2023/04/07 12:29:26;;;;;;;3.92;3.42;;;10.60;99.90;;;;;;5016086;28;20065;-41
2023/04/07 12:31:55;;;;;;;4.53;3.85;;;10.50;99.90;;;;;;5020494;28;20421;-40
2023/04/07 12:34:22;;;;;;;4.55;3.88;;;10.60;99.90;;;;;;5018032;28;20049;-41
2023/04/07 12:36:50;;;;;;;6.47;5.07;;;10.80;99.90;;;;;;5017901;28;20069;-41
2023/04/07 12:39:18;;;;;;;4.97;4.53;;;11.10;99.90;;;;;;5018535;28;20426;-42
2023/04/07 12:41:47;;;;;;;5.40;4.47;;;11.30;99.90;;;;;;5016230;28;20480;-45
2023/04/07 12:44:15;;;;;;;5.22;3.90;;;11.80;99.90;;;;;;5021139;28;20045;-43
2023/04/07 12:46:45;;;;;;;4.25;3.58;;;12.00;99.90;;;;;;5020512;28;20038;-41
2023/04/07 12:49:12;;;;;;;4.18;3.65;;;12.10;99.90;;;;;;5020571;28;20061;-40
2023/04/07 12:51:40;;;;;;;3.65;2.75;;;12.00;99.90;;;;;;5020810;28;20577;-42
2023/04/07 12:54:08;;;;;;;3.75;3.35;;;12.20;99.90;;;;;;5023344;28;20346;-43
2023/04/07 12:56:36;;;;;;;5.78;4.05;;;12.10;99.90;;;;;;5021542;28;20519;-46
2023/04/07 12:59:03;;;;;;;5.00;4.50;;;11.90;99.90;;;;;;5024846;28;20053;-40